TAF מנתב"ג רוח ורוח ערה וRA- ?

  • פותח הנושא tcu6
  • פורסם בתאריך

tcu6

New member
TAF מנתב"ג רוח ורוח ערה וRA- ?

בעידכון האחרון: (8:30) רוח דרום מערבית 12 קשר, ובין 9 ל6 בערב תחוג זמנית מערבית 15 קשר ומשבים עד 25 קשר (45 קמ"ש). מ"ח בעננות ב2800 רגל. בין השעות 9 ל 3 אחה"צ גשם קל מענני TCU. LLBG 050530Z 050615 23012KT 9999 SCT028 TEMPO 26015G25KT BKN028 PROB40 TEMPO 0612 8000 -RA SCT022TCU=
 

tcu6

New member
עמן- צפוי ממטרים וענני CB אחה"צ

OJAM 050300Z 050606 30012G22KT 7000 SCT050 TEMPO 1218 6000 -SHRA SCT050 TEMPO SCT040CB= הרוח בעמן תהיה צפ מע 12 קשר משבים עד 22 קשר. בין 3 אחה"צ ועד 9 בערב יתכנו הופעת CB.
 

tcu6

New member
בירות- גשם ומשבים עד 30קשר

OLBA 050606 24015KT 8000 SCT025 PROB30 TEMPO 0618 24015G30KT 6000 RA BKN025=
 

tcu6

New member
מיטאר נחמד מנתב"ג מעט ענני TCU

LLBG 050550Z 20007KT 9999 FEW030TCU SCT032 28/21 Q1009 NOSIG
 
למעלה